x

8452951 - Potter Cove, Prudence Island, Ri (ptcr1) Weather Station

1:54 - Fri 21st Jul 2017 All times are EDT. -4 hours from GMT.

  • Wind
    5mph, 7mph gusts
  • Luft Temp 86°f
  • Sea Pressure 1010mb
  • 8452951 - Potter Cove, Prudence Island, Ri
  • 8452951 - Potter Cove, Prudence Island, Ri

More Historic Weather Station data

Upgrade to MSW Pro to gain access to the past 30 days of data for over 8000 Wavebouys and Weather Stations around the globe.

Join Pro

Comparision Forecast

View Surf forecast
   
Fr 07/21 1:54 5 7 mph 1010mb 86f
1:48 2 7 mph - -
1:42 1 3 mph 1010.1mb 87f
1:36 1 5 mph 1010.2mb 87f
1:30 1 5 mph 1010.3mb 86f
1:24 3 9 mph 1010.4mb 86f
1:18 3 6 mph - -
1:12 2 7 mph 1010.6mb 86f
1:06 3 6 mph 1010.6mb 86f
1:00 3 9 mph 1010.6mb 86f
12:54 2 7 mph 1010.6mb 86f
12:48 2 5 mph 1010.6mb 86f
12:42 5 8 mph 1010.6mb 86f
12:36 2 5 mph 1010.6mb 86f
12:30 3 8 mph 1010.7mb 86f
12:24 3 6 mph 1010.8mb 86f
12:18 2 6 mph 1010.7mb 85f
12:12 2 6 mph 1010.8mb 85f
12:06 3 7 mph 1011mb 86f
12:00 6 8 mph 1011mb 85f
11:54 6 10 mph 1011.1mb 84f
11:48 3 8 mph 1011.1mb 85f
11:42 2 5 mph 1011.1mb 85f
11:36 5 8 mph 1011.2mb 85f
11:30 6 9 mph 1011.2mb 84f
11:24 6 9 mph 1011.2mb 84f
11:18 3 8 mph 1011.3mb 84f
11:12 5 8 mph 1011.3mb 84f
11:06 5 8 mph 1011.4mb 83f
11:00 6 9 mph 1011.4mb 83f
10:54 5 9 mph 1011.4mb 83f
10:48 5 8 mph 1011.5mb 83f
10:42 7 10 mph 1011.5mb 83f
10:36 5 10 mph 1011.5mb 82f
10:30 3 7 mph 1011.5mb 83f
10:24 6 9 mph 1011.6mb 83f
10:18 6 10 mph 1011.7mb 83f
10:12 5 8 mph 1011.6mb 82f
10:06 3 9 mph 1011.4mb 83f
10:00 5 10 mph 1011.4mb 83f
9:54 3 7 mph 1011.5mb 82f
9:48 6 9 mph 1011.4mb 82f
9:42 6 9 mph 1011.4mb 81f
9:36 6 9 mph 1011.5mb 81f
9:30 7 10 mph 1011.5mb 81f
9:24 6 9 mph 1011.5mb 80f
9:18 7 11 mph 1011.4mb 80f
9:12 6 10 mph 1011.4mb 80f
9:06 5 9 mph 1011.3mb 80f
9:00 5 9 mph 1011.3mb 80f
8:54 5 10 mph 1011.3mb 81f
8:48 7 10 mph - -
8:42 6 10 mph 1011.3mb 80f
8:36 5 9 mph 1011.4mb 80f
8:30 3 7 mph 1011.3mb 79f
8:24 6 9 mph 1011.3mb 79f
8:18 3 8 mph 1011.2mb 79f
8:12 5 8 mph 1011.2mb 79f
8:06 3 9 mph 1011.3mb 78f
8:00 3 8 mph 1011.3mb 77f
7:54 6 10 mph 1011.3mb 77f
7:48 6 8 mph 1011.3mb 77f
7:42 6 9 mph 1011.3mb 78f
7:36 5 9 mph 1011.2mb 76f
7:30 5 8 mph 1011.2mb 76f
7:24 6 9 mph 1011.2mb 76f
7:18 5 9 mph 1011.2mb 75f
7:12 5 9 mph 1011mb 75f
7:06 6 9 mph 1010.9mb 75f
7:00 6 9 mph 1010.9mb 75f
6:54 6 9 mph 1010.8mb 74f
6:48 6 9 mph 1010.7mb 74f
6:42 5 7 mph 1010.7mb 74f
6:36 2 5 mph 1010.7mb 74f
6:30 3 6 mph 1010.6mb 73f
6:24 2 6 mph 1010.6mb 74f
6:18 2 5 mph 1010.6mb 73f
6:12 3 6 mph 1010.6mb 73f
6:06 3 6 mph 1010.6mb 73f
6:00 2 6 mph 1010.5mb 73f
5:54 2 6 mph 1010.5mb 73f
5:48 2 5 mph 1010.5mb 73f
5:42 3 7 mph 1010.4mb 72f
5:36 2 5 mph 1010.4mb 72f
5:30 2 5 mph 1010.4mb 72f
5:24 2 3 mph 1010.3mb 72f
5:18 3 5 mph 1010.3mb 72f
5:12 2 5 mph 1010.2mb 72f
5:06 1 3 mph 1010.3mb 72f
5:00 2 5 mph 1010.3mb 73f
4:54 1 2 mph 1010.2mb 73f
4:48  -  1 mph 1010.2mb 73f
4:42  -  0 mph 1010.2mb 73f
4:36  -  1 mph 1010.1mb 73f
4:30  -  3 mph 1010.1mb 73f
4:24 1 2 mph 1010.1mb 73f
4:18 2 3 mph 1010.1mb 72f
4:12 2 6 mph 1010mb 72f
4:06 3 5 mph 1009.9mb 72f
4:00 3 6 mph 1009.9mb 72f
3:54 3 5 mph 1009.8mb 72f
3:48 3 6 mph 1009.8mb 73f
3:42 5 6 mph 1009.8mb 73f
3:36 3 7 mph 1009.8mb 73f
3:30 3 6 mph 1009.9mb 73f
3:24 3 6 mph 1009.9mb 73f
3:18 3 6 mph - -
3:12 5 7 mph 1009.9mb 73f
3:06 5 8 mph 1009.9mb 74f
3:00 5 6 mph 1009.9mb 74f
2:54 3 5 mph 1009.9mb 74f
2:48 2 2 mph 1009.9mb -
2:42 2 3 mph 1009.9mb -
2:36 3 5 mph 1009.8mb -
2:30 2 3 mph 1009.9mb 74f
2:24 2 3 mph 1009.8mb 73f
2:18 1 2 mph 1009.9mb 74f
2:12 2 5 mph 1009.8mb 74f
2:06  -  2 mph 1009.8mb 74f
2:00  -  1 mph 1009.9mb 74f
1:54 1 3 mph 1009.8mb 74f
1:48 1 2 mph 1009.9mb -
1:42  -  1 mph 1009.9mb -
1:36 1 3 mph 1009.9mb -
1:30 2 5 mph 1010mb 74f
1:24 3 5 mph 1010mb 74f
1:18 2 3 mph 1010mb 74f
1:12 2 2 mph 1009.9mb 74f
1:06 2 3 mph 1009.9mb 74f
1:00 1 3 mph 1010mb 74f
12:54 1 2 mph 1010mb 74f
12:48 2 3 mph 1010.1mb 74f
12:42  -  0 mph 1010mb 74f
12:36 1 1 mph 1009.9mb 75f
12:30 1 1 mph 1010mb 75f
12:24 1 2 mph 1010.1mb 75f
12:18 1 2 mph 1010.2mb 75f
12:12 2 3 mph 1010.3mb 75f
12:06 3 5 mph 1010.3mb 75f
12:00  -  2 mph 1010.3mb 75f
Do 07/20 11:54 1 2 mph 1010.2mb 75f
11:48  -  1 mph 1010.2mb 76f
11:42 1 3 mph 1010.2mb 75f
11:36 1 3 mph 1010.3mb 76f
11:30 1 3 mph 1010.3mb 76f
11:24 1 2 mph 1010.2mb 76f
11:18  -  1 mph 1010.3mb 76f
11:12 2 3 mph 1010.3mb 76f
11:06 2 6 mph 1010.3mb 76f
11:00 3 6 mph 1010.2mb 76f
10:54 2 5 mph 1010.2mb 76f
10:48 2 5 mph 1010.2mb 76f
10:42 3 5 mph 1010.3mb 76f
10:36 1 2 mph 1010.3mb 76f
10:30 1 3 mph 1010.2mb 77f
10:24 2 5 mph 1010.2mb 77f
10:18 2 3 mph - -
10:12 2 5 mph 1010.3mb 77f
10:06 2 5 mph 1010.3mb 77f
10:00 2 6 mph 1010.3mb 77f
9:48 2 6 mph 1010.4mb 77f
9:42 2 3 mph 1010.3mb 78f
9:36 2 5 mph 1010.3mb 77f
9:30 2 5 mph 1010.4mb 77f
9:24 2 5 mph 1010.6mb 78f
9:18 2 3 mph 1010.6mb -
9:12 1 3 mph 1010.6mb 78f
9:06 3 6 mph 1010.6mb 78f
9:00 2 5 mph 1010.6mb 78f
8:48 1 2 mph 1010.5mb -
8:42 3 6 mph 1010.6mb 78f
8:36 3 7 mph 1010.4mb 78f
8:30 6 9 mph 1010.3mb 78f
8:24 7 11 mph 1010.4mb 78f
8:18 5 7 mph 1010.3mb 78f
8:12 3 7 mph 1010.3mb 78f
8:06 5 9 mph 1010.3mb 78f
8:00 3 7 mph 1010.3mb 78f
7:54 5 9 mph 1010.3mb 78f
7:48 3 8 mph 1010.5mb -
7:42 5 8 mph 1010.1mb 78f
7:36 3 8 mph 1010.2mb 78f
7:30 5 10 mph 1010.2mb 78f
7:24 3 6 mph 1010.5mb 79f
7:18 3 5 mph 1010.7mb 79f
7:12 2 6 mph 1010.8mb 79f
7:06 2 5 mph 1010.8mb 79f
7:00 2 6 mph 1010.8mb 79f
6:54 2 7 mph 1010.8mb 80f
6:48 3 8 mph 1010.6mb -
6:42 5 9 mph 1010.7mb 80f
6:36 6 13 mph 1010.6mb 80f
6:30 5 9 mph 1010.5mb 79f
6:24 5 7 mph 1010.6mb 80f
6:18 5 8 mph 1010.5mb 81f
6:12 5 9 mph 1010.4mb 82f
6:06 6 11 mph 1010.5mb 83f
6:00 5 8 mph 1010.5mb 81f
5:54 6 10 mph 1010.6mb 82f
5:48 5 10 mph 1010.6mb -
5:42 5 10 mph 1010.8mb 82f
5:36 5 11 mph 1010.9mb 82f
5:30 6 9 mph 1010.9mb 82f
5:24 7 10 mph 1010.9mb 83f
5:18 6 9 mph 1011mb 83f
5:12 6 10 mph 1011mb 82f
5:06 5 11 mph 1011mb 82f
5:00 5 8 mph 1011mb 82f
4:54 6 13 mph 1011.1mb 81f
4:48 6 11 mph 1011.2mb 82f
4:42 6 14 mph 1011.2mb 83f
4:36 6 10 mph 1011.2mb 83f
4:30 6 13 mph 1011.3mb 84f
4:24 6 14 mph 1011.3mb 84f
4:18 6 10 mph 1011.4mb 84f
4:12 6 11 mph 1011.4mb 83f
4:06 6 13 mph 1011.4mb 83f
4:00 7 13 mph 1011.3mb 83f
3:54 8 13 mph 1011.3mb 84f
3:48 8 14 mph 1011.3mb 84f
3:42 7 15 mph 1011.3mb 82f
3:36 8 14 mph 1011.4mb 83f
3:30 7 14 mph 1011.3mb 84f
3:24 5 9 mph 1011.2mb 85f
3:18 6 13 mph 1011.3mb 85f
3:12 6 11 mph 1011.3mb 85f
3:06 6 11 mph 1011.4mb 86f
3:00 5 8 mph 1011.6mb 86f
2:54 6 10 mph 1011.6mb 87f
2:48 6 10 mph 1011.8mb 86f
2:42 6 10 mph 1011.7mb 86f
2:36 5 9 mph 1011.9mb 85f
2:30 6 10 mph 1011.9mb 86f
2:24 5 9 mph 1011.9mb 85f
2:18 5 9 mph 1011.9mb 84f
2:12 5 9 mph 1012mb 86f
2:06 5 9 mph 1012.2mb 85f
2:00 6 14 mph 1012.2mb 84f
1:54 5 9 mph 1012.1mb 85f
1:48 5 8 mph 1012.2mb 86f
1:42 5 10 mph 1012.3mb 85f
1:36 6 9 mph 1012.4mb 85f
1:30 6 11 mph 1012.4mb 85f
1:24 6 10 mph 1012.6mb 86f
1:18 6 10 mph 1012.7mb 85f
1:12 6 13 mph 1012.7mb 85f
1:06 6 10 mph 1012.7mb 85f
1:00 6 9 mph 1012.9mb 86f
12:54 6 10 mph 1013.1mb 86f
12:48 5 9 mph 1013.2mb 86f
12:42 6 11 mph 1013.2mb 86f
12:36 6 11 mph 1013.3mb 86f
12:30 6 14 mph 1013.5mb 85f
12:24 5 9 mph 1013.7mb 85f
12:18 3 8 mph 1013.8mb 85f
12:12 5 8 mph 1013.8mb 86f
12:06 5 8 mph 1013.8mb 85f
12:00 2 7 mph 1013.8mb 85f
11:54 3 7 mph 1013.8mb 85f
11:48 2 3 mph 1013.9mb 85f
11:42 2 5 mph 1013.9mb 86f
11:36 5 7 mph 1013.9mb 85f
11:30 5 7 mph 1014mb 84f
11:24 2 5 mph 1014mb 84f
11:18 5 8 mph 1014.1mb 84f
11:12 3 7 mph 1014.2mb 84f
11:06 5 6 mph 1014.2mb 84f
11:00 3 6 mph 1014.1mb 84f
10:54 2 5 mph 1014.2mb 83f
10:48 2 5 mph 1014.2mb 84f
10:42 2 5 mph 1014.3mb 84f
10:36 2 3 mph 1014.4mb 85f
10:30 3 6 mph 1014.4mb 83f
10:24 3 6 mph 1014.4mb 82f
10:18 2 5 mph - -
10:12 2 6 mph 1014.4mb 82f
10:06 2 3 mph 1014.4mb 82f
10:00 2 5 mph 1014.5mb 82f
9:54 1 2 mph 1014.5mb 82f
9:48 3 5 mph 1014.5mb 81f
9:42 2 3 mph 1014.5mb 81f
9:36 1 3 mph 1014.5mb 82f
9:30 1 3 mph 1014.4mb 82f
9:24 1 3 mph 1014.4mb 83f
9:18  -  1 mph 1014.4mb 83f
9:12 1 3 mph 1014.4mb 82f
9:06  -  2 mph 1014.4mb 83f
9:00  -  2 mph 1014.5mb 82f
8:54  -  2 mph 1014.6mb 81f
8:48 1 3 mph 1014.6mb 80f
8:42 1 2 mph 1014.7mb 80f
8:36 2 3 mph 1014.7mb 79f
8:30 2 3 mph 1014.8mb 79f
8:24 2 5 mph 1014.8mb 79f
8:18 3 6 mph 1014.8mb 78f
8:12 2 5 mph 1014.8mb 78f
8:06 2 3 mph 1014.9mb 78f
8:00 2 5 mph 1014.9mb 78f
7:54 3 6 mph 1014.9mb 77f
7:48 2 6 mph 1014.9mb 77f
7:42 2 5 mph 1014.8mb 77f
7:36 2 3 mph 1014.7mb 76f
7:30  -  1 mph 1014.7mb 77f
7:24  -  1 mph 1014.5mb 76f
7:18  -  2 mph 1014.5mb 77f
7:12  -  0 mph 1014.5mb 75f
7:06  -  0 mph 1014.4mb 75f
7:00  -  0 mph 1014.4mb 75f
6:54 1 2 mph 1014.3mb 74f
6:48 2 3 mph - -
6:42 2 3 mph 1014.3mb 73f
6:36 1 1 mph 1014.2mb 73f
6:30  -  0 mph 1014.1mb 72f
6:24  -  2 mph 1014.1mb 72f
6:18  -  1 mph 1014.1mb 72f
6:12  -  0 mph 1013.9mb 72f
6:06  -  0 mph 1013.8mb 72f
6:00  -  0 mph 1013.8mb 72f
5:54  -  0 mph 1013.7mb 71f
5:48  -  0 mph 1013.8mb 71f
5:42 1 2 mph 1013.8mb 71f
5:36  -  1 mph 1013.9mb 71f
5:30 2 2 mph 1013.8mb 70f
5:24 1 2 mph 1013.9mb 70f
5:18  -  2 mph - -
5:12 2 3 mph 1013.8mb 71f
5:06 3 3 mph 1013.7mb 72f
5:00  -  1 mph 1013.7mb 72f
4:54 1 1 mph 1014mb 71f
4:48  -  0 mph - -
4:42 1 2 mph 1013.9mb 72f
4:36 2 2 mph 1013.6mb 72f
4:30 3 3 mph 1013.7mb 72f
4:24 2 5 mph 1013.6mb 72f
4:18 2 3 mph 1013.7mb 72f
4:12 2 3 mph 1013.8mb 72f
4:06  -  1 mph 1013.9mb 72f
4:00 2 2 mph 1014.1mb 71f
3:54 2 2 mph 1014mb 71f
3:48 1 1 mph - -
3:42  -  0 mph 1014mb 72f
3:36  -  1 mph 1013.8mb 72f
3:30 1 2 mph 1013.8mb 72f
3:24 1 3 mph 1013.9mb 72f
3:18 2 3 mph 1014mb 72f
3:12 2 3 mph 1014.1mb 73f
3:06 2 3 mph 1014mb 72f
3:00 2 3 mph 1014mb 73f
2:54 2 3 mph 1014.1mb 73f
2:48 2 3 mph 1014.1mb 73f
2:42 1 2 mph 1014mb 73f
2:36  -  1 mph 1014mb 72f
2:30  -  2 mph 1014.1mb 73f
2:24  -  1 mph 1014.1mb 73f
2:18 2 3 mph - -
2:12  -  0 mph 1014.3mb 73f
2:06  -  2 mph 1014.2mb 73f
2:00 1 3 mph 1014.3mb 73f
1:54 2 3 mph 1014.3mb 73f
1:48 1 2 mph 1014.3mb 73f
1:42 2 3 mph 1014.3mb 73f
1:36  -  2 mph 1014.3mb 73f
1:30 1 2 mph 1014.4mb 73f
1:24 3 3 mph 1014.5mb 73f
1:18 2 3 mph 1014.6mb 73f
1:12 1 3 mph 1014.6mb 73f
1:06 2 5 mph 1014.5mb 74f
1:00 3 5 mph 1014.6mb 74f
12:54 3 5 mph 1014.5mb 74f
12:48 3 5 mph - -
12:42 2 5 mph 1014.7mb 74f
12:36 1 3 mph 1014.8mb 74f
12:30  -  1 mph 1014.8mb 75f
12:24  -  0 mph 1014.8mb 75f
12:18  -  1 mph 1014.8mb 75f
12:12 3 5 mph 1014.8mb 75f
12:06 3 5 mph 1014.7mb 76f
12:00 3 6 mph 1014.7mb 76f
Mi 07/19 11:54 2 5 mph 1014.7mb 76f
11:48 2 6 mph 1014.7mb 76f
11:42 2 5 mph 1014.7mb 76f
11:36 2 5 mph 1014.6mb 76f
11:30 1 5 mph 1014.6mb 76f
11:24 2 5 mph 1014.7mb 76f
11:18 2 7 mph - -
11:12 2 6 mph 1014.8mb 76f
11:06  -  3 mph 1014.7mb 76f
11:00  -  2 mph 1014.8mb 76f
10:54  -  2 mph 1014.9mb 76f
10:48 2 5 mph 1014.9mb 76f
10:42 3 6 mph 1014.9mb 75f
10:36 2 5 mph 1014.9mb 75f
10:30 2 3 mph 1014.9mb 75f
10:24 2 6 mph 1014.9mb 75f
10:18 3 5 mph 1014.9mb -
10:12 2 5 mph 1014.9mb 75f
10:06 2 5 mph 1015mb 75f
10:00 1 3 mph 1015.1mb 75f
9:54 2 3 mph 1015mb 75f
9:48 2 5 mph 1014.9mb -
9:42 3 6 mph 1014.9mb 75f
9:36 3 6 mph 1014.9mb 75f
9:30 3 6 mph 1014.8mb 75f
9:24 3 6 mph 1014.7mb 75f
9:18 3 8 mph 1014.6mb 75f
9:12 3 7 mph 1014.5mb 75f
9:06 5 10 mph 1014.5mb 75f
9:00 5 8 mph 1014.5mb 75f
8:54 5 7 mph 1014.4mb 76f
8:48 5 9 mph 1014.3mb -
8:42 3 7 mph 1014.3mb 76f
8:36 3 7 mph 1014.2mb 76f
8:30 3 7 mph 1014.1mb 76f
8:24 5 8 mph 1014.1mb 76f
8:18 5 8 mph 1014mb -
8:12 5 8 mph 1014mb 77f
8:06 5 11 mph 1014mb 77f
8:00 5 8 mph 1014.1mb 77f
7:54 5 8 mph 1014.1mb 77f
7:48 5 9 mph 1014.2mb 77f
7:42 5 11 mph 1014.2mb 77f
7:36 6 8 mph 1014.1mb 78f
7:30 6 10 mph 1014.1mb 78f
7:24 6 10 mph 1014mb 78f
7:18 6 10 mph 1013.9mb -
7:12 5 9 mph 1013.8mb 78f
7:06 6 10 mph 1013.8mb 79f
7:00 6 10 mph 1013.7mb 79f
6:54 5 11 mph 1013.8mb 79f
6:48 6 11 mph 1013.7mb -
6:42 6 14 mph 1013.6mb 79f
6:36 5 13 mph 1013.7mb 79f
6:30 6 11 mph 1013.6mb 80f
6:24 6 11 mph 1013.6mb 81f
6:18 6 13 mph 1013.6mb 80f
6:12 6 13 mph 1013.6mb 81f
6:06 6 13 mph 1013.6mb 81f
6:00 6 13 mph 1013.6mb 81f
5:54 6 9 mph 1013.7mb 81f
5:48 6 11 mph 1013.6mb -
5:42 6 10 mph 1013.7mb 80f
5:36 5 8 mph 1013.7mb 81f
5:30 6 10 mph 1013.7mb 82f
5:24 6 9 mph 1013.6mb 82f
5:18 5 11 mph 1013.6mb 81f
5:12 6 11 mph 1013.6mb 83f
5:06 7 11 mph 1013.6mb 82f
5:00 8 13 mph 1013.7mb 82f
4:54 7 13 mph 1013.7mb 82f
4:48 8 13 mph 1013.7mb 82f
4:42 7 13 mph 1013.8mb 82f
4:36 6 13 mph 1013.8mb 83f
4:30 8 13 mph 1013.8mb 83f
4:24 6 13 mph 1013.8mb 83f
4:18 6 15 mph - -
4:12 8 16 mph 1014mb 82f
4:06 8 16 mph 1014.1mb 80f
4:00 7 14 mph 1014.1mb 80f
3:54 6 14 mph 1014.1mb 81f
3:48 5 10 mph 1014.2mb 82f
3:42 7 16 mph 1014.2mb 82f
3:36 7 16 mph 1014.2mb 82f
3:30 7 13 mph 1014.2mb 82f
3:24 8 17 mph 1014.2mb 82f
3:18 6 13 mph 1014.2mb 82f
3:12 8 16 mph 1014.3mb 82f
3:06 8 14 mph 1014.3mb 82f
3:00 7 17 mph 1014.3mb 82f
2:54 8 14 mph 1014.4mb 82f
2:48 8 16 mph 1014.4mb 82f
2:42 7 14 mph 1014.5mb 82f
2:36 8 15 mph 1014.5mb 82f
2:30 8 16 mph 1014.6mb 82f
2:24 6 15 mph 1014.6mb 82f
2:18 6 11 mph 1014.6mb 83f
2:12 7 16 mph 1014.7mb 82f
2:06 8 16 mph 1014.8mb 82f
2:00 8 14 mph 1014.9mb 82f
1:54 7 15 mph 1014.9mb 82f
1:48 8 16 mph - -
1:42 8 15 mph 1015mb 82f
1:36 6 13 mph 1015.1mb 82f
1:30 7 13 mph 1015.2mb 82f
1:24 7 15 mph 1015.2mb 82f
1:18 6 11 mph 1015.3mb 82f
1:12 7 15 mph 1015.3mb 83f
1:06 7 14 mph 1015.4mb 82f
1:00 8 14 mph 1015.5mb 82f
12:54 6 14 mph 1015.5mb 82f
12:48 7 14 mph 1015.6mb 82f
12:42 7 14 mph 1015.7mb 82f
12:36 7 15 mph 1015.8mb 82f
12:30 6 11 mph 1015.8mb 82f
12:24 7 14 mph 1015.9mb 82f
12:18 6 11 mph 1016mb 82f
12:12 7 11 mph 1016mb 82f
12:06 6 11 mph 1016.1mb 82f
12:00 5 10 mph 1016.1mb 82f
11:54 7 13 mph 1016.2mb 82f
11:48 7 14 mph 1016.2mb 81f
11:42 7 13 mph 1016.3mb 81f
11:36 8 13 mph 1016.4mb 81f
11:30 6 13 mph 1016.4mb 81f
11:24 5 8 mph 1016.4mb 82f
11:18 5 10 mph - -
11:12 5 9 mph 1016.5mb 81f
11:06 3 7 mph 1016.6mb 82f
11:00 5 7 mph 1016.7mb 81f
10:54 5 8 mph 1016.7mb 81f
10:48 3 8 mph 1016.8mb 80f
10:42 6 9 mph 1016.9mb 80f
10:36 5 9 mph 1016.9mb 80f
10:30 3 8 mph 1016.9mb 80f
10:24 6 10 mph 1016.9mb 79f
10:18 3 8 mph 1016.8mb 79f
10:12 6 9 mph 1016.9mb 79f
10:06 5 10 mph 1016.9mb 79f
10:00 3 7 mph 1016.9mb 79f
9:54 3 7 mph 1016.9mb 78f
9:48 2 6 mph 1016.9mb 78f
9:42 5 8 mph 1017mb 78f
9:36 3 7 mph 1017mb 77f
9:30 5 9 mph 1017.1mb 78f
9:24 5 9 mph 1017mb 77f
9:18 5 10 mph 1017.1mb 77f
9:12 5 8 mph 1017.1mb 77f
9:06 3 7 mph 1017.1mb 76f
9:00 3 7 mph 1017.2mb 77f
8:54 3 8 mph 1017.2mb 76f
8:48 2 6 mph 1017.2mb 76f
8:42 3 7 mph 1017.2mb 76f
8:36 3 8 mph 1017.3mb 76f
8:30 3 6 mph 1017.3mb 76f
8:24 3 7 mph 1017.4mb 75f
8:18 5 8 mph 1017.4mb 75f
8:12 5 9 mph 1017.4mb 75f
8:06 3 7 mph 1017.3mb 75f
8:00 5 8 mph 1017.3mb 75f
7:54 3 6 mph 1017.3mb 75f
7:48 5 6 mph 1017.3mb 75f
7:42 3 6 mph 1017.4mb 75f
7:36 5 8 mph 1017.4mb 75f
7:30 5 8 mph 1017.3mb 75f
7:24 6 8 mph 1017.3mb 75f
7:18 6 8 mph 1017.3mb 74f
7:12 6 8 mph 1017.4mb 74f
7:06 7 9 mph 1017.3mb 74f
7:00 6 8 mph 1017.4mb 74f
6:54 6 7 mph 1017.4mb 74f
6:48 6 9 mph 1017.5mb 74f
6:42 6 9 mph 1017.3mb 74f
6:36 6 8 mph 1017.3mb 74f
6:30 5 8 mph 1017.3mb 74f
6:24 6 9 mph 1017.3mb 74f
6:18 5 9 mph 1017.5mb 74f
6:12 5 7 mph 1017.4mb 74f
6:06 5 7 mph 1017.4mb 73f
6:00 5 7 mph 1017.3mb 73f
5:54 5 7 mph 1017.3mb 73f
5:48 5 7 mph - -
5:42 5 9 mph 1017.3mb 73f
5:36 5 7 mph 1017.3mb 73f
5:30 6 8 mph 1017.4mb 73f
5:24 6 10 mph 1017.3mb 73f
5:18 6 11 mph 1017.4mb 73f
5:12 5 7 mph 1017.3mb 73f
5:06 5 7 mph 1017.4mb 73f
5:00 5 8 mph 1017.4mb 73f
4:54 5 7 mph 1017.4mb 73f
4:48 5 8 mph 1017.3mb 73f
4:42 6 8 mph 1017.4mb 73f
4:36 6 9 mph 1017.4mb 73f
4:30 5 8 mph 1017.4mb 73f
4:24 6 10 mph 1017.3mb 73f
4:18 6 8 mph - -
4:12 5 7 mph 1017.2mb 73f
4:06 5 7 mph 1017.1mb 73f
4:00 5 8 mph 1017.1mb 73f
3:54 6 8 mph 1017.3mb 73f
3:48 5 9 mph 1017.3mb 73f
3:42 6 9 mph 1017.2mb 73f
3:36 5 9 mph 1017.3mb 73f
3:30 5 7 mph 1017.3mb 73f
3:24 6 8 mph 1017.3mb 73f
3:18 3 8 mph 1017.4mb 73f
3:12 3 7 mph 1017.5mb 73f
3:06 5 7 mph 1017.5mb 73f
3:00 2 5 mph 1017.5mb 73f
2:54 5 7 mph 1017.5mb 73f
2:48 3 6 mph 1017.6mb 73f
2:42 2 5 mph 1017.6mb -
2:36 3 7 mph 1017.7mb -
2:30 3 6 mph 1017.7mb 73f
2:24 3 6 mph 1017.7mb 73f
2:18 3 5 mph 1017.7mb 73f
2:12 3 6 mph 1017.7mb 73f
2:06 3 6 mph 1017.7mb 73f
2:00 3 6 mph 1017.8mb 73f
1:54 2 5 mph 1017.8mb 73f
1:48 3 6 mph - -
1:42 2 5 mph - -
1:36 3 6 mph - -
1:30 5 9 mph 1018.2mb 73f
1:24 3 7 mph 1018.2mb 73f
1:18 5 7 mph 1018.3mb 73f
1:12 6 8 mph 1018.2mb 73f
1:06 6 9 mph 1018.1mb 73f
1:00 6 7 mph 1018.1mb 73f
12:54 6 9 mph 1018.1mb 73f
12:48 5 9 mph 1018.1mb 73f
12:42 5 7 mph 1018.1mb 73f
12:36 5 7 mph 1018.1mb 73f
12:30 7 9 mph 1018.1mb 73f
12:24 6 9 mph 1018.1mb 73f
12:18 6 9 mph 1018mb 73f
12:12 6 8 mph 1018.1mb 73f
12:06 6 8 mph 1018.2mb 73f
12:00 6 8 mph 1018.2mb 73f
Di 07/18 11:54 5 6 mph 1018.3mb 73f
11:48 5 6 mph 1018.4mb -
11:42 2 6 mph 1018.6mb 73f
11:36 2 6 mph 1018.5mb 73f
11:30 3 6 mph 1018.6mb 73f
11:24 2 5 mph 1018.7mb 73f
11:18 2 5 mph 1018.7mb 73f
11:12 5 7 mph 1018.8mb 73f
11:06 2 5 mph 1018.8mb 73f
11:00 3 6 mph 1018.7mb 73f
10:54 3 6 mph 1018.8mb 73f
10:48 3 6 mph 1018.8mb 73f
10:42 3 6 mph 1018.8mb 73f
10:36 3 6 mph 1018.6mb 73f
10:30 5 7 mph 1018.8mb 73f
10:24 5 7 mph 1018.8mb 73f
10:18 5 6 mph 1018.8mb -
10:12 6 9 mph 1018.8mb 73f
10:06 5 8 mph 1018.6mb 73f
10:00 5 6 mph 1018.4mb 73f
9:54 5 6 mph 1018.3mb 73f
9:48 3 7 mph 1018.3mb -
9:42 5 7 mph 1018.3mb 74f
9:36 3 6 mph 1018.3mb 74f
9:30 3 6 mph 1018.3mb 74f
9:24 3 6 mph 1018.3mb 74f
9:18 2 5 mph 1018.2mb 74f
9:12 2 5 mph 1018.3mb 74f
9:06 3 5 mph 1018.4mb 74f
9:00 5 8 mph 1018.4mb 74f
8:54 6 8 mph 1018.4mb 74f
8:48 6 10 mph 1018.2mb -
8:42 6 10 mph 1018.1mb 74f
8:36 7 10 mph 1017.9mb 74f
8:30 8 14 mph 1017.9mb 75f
8:24 6 10 mph 1017.8mb 75f
8:18 6 11 mph 1017.7mb -
8:12 6 9 mph 1017.6mb 75f
8:06 5 9 mph 1017.7mb 75f
8:00 6 11 mph 1017.7mb 75f
7:54 7 16 mph 1017.7mb 75f
7:48 7 13 mph 1017.6mb 75f
7:42 8 16 mph 1017.5mb 75f
7:36 6 13 mph 1017.6mb 75f
7:30 6 11 mph 1017.8mb 75f
7:24 5 8 mph 1018mb 75f
7:18 6 11 mph 1018.2mb 75f
7:12 5 10 mph 1018.2mb 75f
7:06 3 10 mph 1018.1mb 75f
7:00 5 8 mph 1018.4mb 75f
6:54 3 7 mph 1018.5mb 75f
6:48 5 8 mph 1018.5mb -
6:42 5 11 mph 1018.5mb 75f
6:36 6 11 mph 1018.3mb 75f
6:30 6 10 mph 1018.3mb 75f
6:24 7 14 mph 1018.2mb 75f
6:18 6 13 mph 1018.2mb 75f
6:12 5 10 mph 1018.2mb 76f
6:06 6 10 mph 1018.1mb 76f
6:00 5 11 mph 1018mb 76f
5:54 6 14 mph 1018mb 75f
5:48 6 13 mph 1018mb 75f
5:42 6 13 mph 1017.9mb 75f
5:36 6 13 mph 1017.7mb 76f
5:30 6 13 mph 1017.7mb 77f
5:24 6 13 mph 1017.5mb 77f
5:18 7 16 mph 1017.5mb 78f
5:12 7 13 mph 1017.5mb 77f
5:06 9 17 mph 1017.6mb 77f
5:00 7 17 mph 1017.7mb 77f
4:54 7 16 mph 1017.6mb 77f
4:48 7 14 mph 1017.6mb 78f
4:42 7 14 mph 1017.5mb 78f
4:36 7 20 mph 1017.3mb 78f
4:30 6 14 mph 1017.4mb 78f
4:24 9 17 mph 1017.5mb 78f
4:18 8 14 mph 1017.5mb 78f
4:12 7 15 mph 1017.5mb 78f
4:06 7 16 mph 1017.5mb 78f
4:00 7 15 mph 1017.6mb 78f
3:54 7 15 mph 1017.8mb 78f
3:48 7 15 mph - -
3:42 8 15 mph 1017.7mb 78f
3:36 7 17 mph 1017.6mb 78f
3:30 7 17 mph 1017.7mb 79f
3:24 8 15 mph 1017.7mb 79f
3:18 6 14 mph 1017.7mb 80f
3:12 8 14 mph 1017.9mb 80f
3:06 6 14 mph 1017.9mb 80f
3:00 7 13 mph 1018mb 80f
2:54 5 11 mph 1018.1mb 80f
2:48 6 11 mph - -
2:42 6 10 mph 1018.1mb 80f
2:36 6 13 mph 1018.2mb 80f
2:30 6 14 mph 1018.2mb 81f
2:24 6 10 mph 1018.3mb 80f
2:18 6 11 mph 1018.2mb 80f
2:12 7 11 mph 1018.3mb 80f
2:06 2 6 mph 1018.3mb 81f
2:00 6 11 mph 1018.3mb 81f
1:54 7 13 mph 1018.4mb 79f
1:48 6 11 mph 1018.6mb 79f
1:42 6 11 mph 1018.7mb 79f
1:36 6 16 mph 1018.7mb 79f
1:30 5 10 mph 1018.7mb 78f
1:24 8 16 mph 1018.8mb 79f
1:18 6 13 mph 1018.8mb 78f
1:12 6 14 mph 1018.9mb 79f
1:06 6 10 mph 1018.9mb 79f
1:00 6 11 mph 1019mb 79f
12:54 7 17 mph 1019.1mb 78f
12:48 8 14 mph 1019.2mb 78f
12:42 6 10 mph 1019.2mb 77f
12:36 7 11 mph 1019.3mb 79f
12:30 7 13 mph 1019.4mb 78f
12:24 6 11 mph 1019.4mb 78f
12:18 6 13 mph 1019.4mb 78f
12:12 6 13 mph 1019.4mb 79f
12:06 8 13 mph 1019.4mb 79f
12:00 6 11 mph 1019.5mb 78f
11:54 6 13 mph 1019.5mb 79f
11:48 6 11 mph 1019.5mb 79f
11:42 7 13 mph 1019.6mb 79f
11:36 6 10 mph 1019.5mb 79f
11:30 3 8 mph 1019.6mb 79f
11:24 2 6 mph 1019.7mb 80f
11:18 5 8 mph - -
11:12 3 6 mph 1019.8mb 78f
11:06 5 9 mph 1019.7mb 79f
11:00 5 8 mph 1019.7mb 79f
10:54 5 7 mph 1019.8mb 78f
10:48 3 7 mph 1019.8mb 78f
10:42 3 6 mph 1019.8mb 79f
10:36 2 6 mph 1019.9mb 78f
10:30 2 7 mph 1019.8mb 78f
10:24 3 6 mph 1019.7mb 78f
10:18 1 5 mph 1019.8mb 78f
10:12 2 5 mph 1019.8mb 78f
10:06 2 6 mph 1019.8mb 78f
10:00 2 6 mph 1019.8mb 78f
9:54 3 6 mph 1019.9mb 77f
9:48 2 5 mph - -
9:42 2 5 mph 1020mb 77f
9:36 2 5 mph 1020.1mb 77f
9:30 2 3 mph 1020.1mb 76f
9:24 3 6 mph 1020.2mb 76f
9:18 2 5 mph 1020.3mb 75f
9:12 1 3 mph 1020.2mb 77f
9:06 1 3 mph 1020.3mb 76f
9:00 1 5 mph 1020.4mb 75f
8:54 2 7 mph 1020.5mb 74f
8:48 2 6 mph - -
8:42 2 5 mph 1020.4mb 74f
8:36 1 5 mph 1020.3mb 74f
8:30 3 5 mph 1020.2mb 74f
8:24 2 5 mph 1020.3mb 73f
8:18 1 3 mph 1020.3mb 73f
8:12 1 5 mph 1020.2mb 74f
8:06 2 3 mph 1020.2mb 73f
8:00 1 3 mph 1020.1mb 74f
7:54 1 3 mph 1020.1mb 73f
7:48 1 2 mph 1020mb 73f
7:42  -  3 mph 1019.8mb 73f
7:36 1 2 mph 1019.7mb 72f
7:30  -  2 mph 1019.7mb 72f
7:24  -  2 mph 1019.7mb 71f
7:18 1 2 mph 1019.6mb 72f
7:12 2 3 mph 1019.6mb 71f
7:06 2 3 mph 1019.6mb 71f
7:00 1 2 mph 1019.6mb 71f
6:54 2 3 mph 1019.5mb 72f
6:48  -  3 mph 1019.5mb 71f
6:42 3 5 mph 1019.4mb 71f
6:36 2 3 mph 1019.5mb 71f
6:30 2 5 mph 1019.5mb 71f
6:24 3 6 mph 1019.6mb 71f
6:18 3 5 mph - -
6:12 2 3 mph 1019.5mb 71f
6:06 2 5 mph 1019.4mb 71f
6:00 2 3 mph 1019.4mb 71f
5:54 2 3 mph 1019.5mb 71f
5:48 2 3 mph 1019.4mb 71f
5:42 2 2 mph 1019.5mb 71f
5:36 2 5 mph 1019.5mb 71f
5:30 3 5 mph 1019.5mb 71f
5:24 3 6 mph 1019.6mb 71f
5:18 2 3 mph 1019.5mb 71f
5:12 2 3 mph 1019.4mb 71f
5:06 2 3 mph 1019.3mb 71f
5:00 2 3 mph 1019.4mb 71f
4:54 3 5 mph 1019.4mb 71f
4:48 2 5 mph - -
4:42 2 3 mph 1019.4mb 71f
4:36  -  2 mph 1019.3mb 71f
4:30  -  2 mph 1019.2mb 71f
4:24 2 3 mph 1019.2mb 71f
4:18  -  1 mph 1019.3mb 71f
4:12  -  2 mph 1019.2mb 71f
4:06 2 3 mph 1019.2mb 71f
4:00 2 3 mph 1019.2mb 71f
3:54 2 3 mph 1019.1mb 71f
3:48  -  2 mph 1019.2mb 71f
3:42  -  2 mph 1019.3mb 71f
3:36 1 2 mph 1019.3mb 71f
3:30 1 2 mph 1019.3mb 71f
3:24  -  2 mph 1019.3mb 71f
3:18  -  1 mph - -
3:12 1 3 mph 1019mb 71f
3:06 2 5 mph 1019.1mb 71f
3:00 3 6 mph 1019.2mb 71f
2:54 3 6 mph 1019.1mb 71f
2:48 2 5 mph 1019.2mb -
2:42 5 6 mph 1019.1mb -
2:36 3 6 mph 1019mb -
2:30 3 6 mph 1019.1mb 71f
2:24 3 5 mph 1019.1mb 71f
2:18 2 3 mph 1019.1mb 71f
2:12 2 3 mph 1019.2mb 71f
2:06 1 3 mph 1019.2mb 71f
2:00  -  2 mph 1019.2mb 71f
1:54 1 3 mph 1019.3mb 71f
1:48 1 2 mph 1019.2mb 71f
1:42 1 3 mph - -
1:36 2 3 mph - -
1:30 2 5 mph 1019.4mb 71f
1:24 2 6 mph 1019.4mb 71f
1:18 2 5 mph 1019.5mb 71f
1:12 2 6 mph 1019.6mb 71f
1:06 2 6 mph 1019.4mb 71f
1:00 2 5 mph 1019.3mb 71f
12:54 3 8 mph 1019.3mb 71f
12:48 3 8 mph 1019.4mb 71f
12:42 3 8 mph 1019.4mb 71f
12:36 5 8 mph 1019.3mb 71f
12:30 3 8 mph 1019.4mb 71f
12:24 5 7 mph 1019.3mb 71f
12:18 3 9 mph - -
12:12 2 7 mph 1019.2mb 71f
12:06 3 8 mph 1019.3mb 71f
12:00 5 7 mph 1019.4mb 71f
Mo 07/17 11:54 5 8 mph 1019.4mb 71f
11:48 3 7 mph 1019.5mb 71f
11:42 5 8 mph 1019.6mb 71f
11:36 5 8 mph 1019.5mb 71f
11:30 3 8 mph 1019.5mb 71f
11:24 3 7 mph 1019.5mb 71f
11:18 2 6 mph - -
11:12 2 6 mph 1019.7mb 71f
11:06 2 6 mph 1019.7mb 72f
11:00 2 6 mph 1019.7mb 71f
10:54 3 7 mph 1019.7mb 72f
10:48 3 7 mph 1019.7mb 72f
10:42 3 7 mph 1019.7mb 72f
10:36 2 6 mph 1019.5mb 72f
10:30 2 6 mph 1019.5mb 72f
10:24 2 6 mph 1019.6mb 72f
10:18 2 6 mph 1019.6mb -
10:12 2 3 mph 1019.4mb 72f
10:06 3 7 mph 1019.3mb 72f
10:00 3 7 mph 1019.4mb 72f
9:54 3 7 mph 1019.3mb 72f
9:48 3 8 mph 1019.3mb -
9:42 3 7 mph 1019.3mb 72f
9:36 5 9 mph 1019.3mb 72f
9:30 3 8 mph 1019.2mb 72f
9:24 5 8 mph 1019.2mb 73f
9:18 3 7 mph 1019.1mb 73f
9:12 5 8 mph 1019mb 72f
9:06 3 8 mph 1019.1mb 72f
9:00 3 7 mph 1019.1mb 73f
8:54 3 7 mph 1019.1mb 73f
8:48 3 6 mph 1019.1mb -
8:42 3 9 mph 1019.1mb 73f
8:36 3 6 mph 1019mb 73f
8:30 2 6 mph 1019.1mb 73f
8:24 2 6 mph 1019.2mb 73f
8:18 2 6 mph 1019.2mb 73f
8:12 3 8 mph 1019.2mb 73f
8:06 3 7 mph 1019.1mb 73f
8:00 3 7 mph 1019mb 73f
7:54 3 7 mph 1019mb 73f
7:48 2 6 mph 1018.9mb 74f
7:42 2 6 mph 1018.9mb 74f
7:36 3 7 mph 1018.9mb 74f
7:30 3 7 mph 1019mb 74f
7:24 2 6 mph 1019mb 74f
7:18 2 6 mph 1019mb -
7:12 2 7 mph 1019mb 75f
7:06 3 10 mph 1018.9mb 76f